Terminal Aerodrome Forecast
Issued by NWS

Home | Current Version | Previous Version | Text Only | Print | Product List | Glossary Off
Versions: 1 2 3 4 5 6 7 8 9 10 11 12 13 14 15 16 17 18 19 20 21

000
FTUS43 KICT 152338
TAFRSL
TAF
KRSL 152338Z 1600/1624 14015G21KT P6SM SCT030
     FM160100 13014KT P6SM BKN035
     FM160600 12009KT P6SM VCTS BKN018CB
     FM160900 11008KT 4SM BR BKN010
     FM161600 12012KT P6SM SCT010 BKN025=

USA.gov is the U.S. government's official web portal to all federal, state and local government web resources and services.